map of MER home
MER - Airport
Location
City:  Atwater, California, United States
Near (Alt.):Merced
Name:Castle Airport
ICAO:KMER
IATA:MER
FAA LID:MER

Details
Type:Airport (Airfield)
Use:Public/Civil
Latitude:3722'50"N (37.380472)
Longitude:12034'05"W (-120.568193)
Datum:WGS 1984
Elevation:190 ft (58 m)
Variation:13.11E (WMM2015 magnetic declination)
-0.10 annual change
Runways:1
Longest:11802 × 150 ft (3597 × 45.5 m), paved

Time
Time Zone:UTC-8 (DST-7)
Local Time:

Weather
METAR:KMER 140145Z 31004KT 5SM BR SKC 13/04 A3008
TAF:KMER 132328Z 1400/1424 VRB02KT 4SM HZ SKC
TEMPO 1412/1416 1 1/2SM BR SKC

Related Locations
Nearby:
Farthest:FTU: 11312 mi / 18205 km
Tolagnaro [Maurillac Airport (Fort Dauphin Airport)], MG

Find:

   beyond  
but within

Other Information
Maps:
NOTAMs:
Links:
Sources:

  
flag of United States
flag of California
  

Airport Diagram

Airport diagram for MER

Airport diagram PDF

Sectional Chart

Flight Planning
at skyvector.com

Satellite Image

Google Maps Satellite view

 

Copyright © 2004-2017 Karl L. Swartz. All rights reserved.
The Great Circle Mapper name and logo are trademarks of the Great Circle Mapper.
All other trademarks mentioned herein belong to their respective owners.
Please see credits for attibutions and further copyright information.

  Follow gcmap on Facebook Follow gcmap on Twitter Follow gcmap on Google+ GCmap on LinkedIn

hCard Microformat

Geo Microformat